sensor_id;sensor_type;location;lat;lon;timestamp;P1;durP1;ratioP1;P2;durP2;ratioP2
63370;SDS011;49504;48.336;14.472;2023-01-15T00:03:10;2.88;;;1.20;;
63370;SDS011;49504;48.336;14.472;2023-01-15T00:08:11;3.65;;;1.55;;
63370;SDS011;49504;48.336;14.472;2023-01-15T00:13:13;3.45;;;1.35;;
63370;SDS011;49504;48.336;14.472;2023-01-15T00:18:15;3.17;;;1.38;;
63370;SDS011;49504;48.336;14.472;2023-01-15T00:23:16;3.33;;;1.38;;
63370;SDS011;49504;48.336;14.472;2023-01-15T00:28:17;4.15;;;1.67;;
63370;SDS011;49504;48.336;14.472;2023-01-15T00:33:20;3.78;;;1.30;;
63370;SDS011;49504;48.336;14.472;2023-01-15T00:38:43;3.08;;;1.27;;
63370;SDS011;49504;48.336;14.472;2023-01-15T00:43:44;3.00;;;1.13;;
63370;SDS011;49504;48.336;14.472;2023-01-15T00:50:36;3.22;;;1.40;;
63370;SDS011;49504;48.336;14.472;2023-01-15T00:55:37;3.70;;;1.50;;
63370;SDS011;49504;48.336;14.472;2023-01-15T01:00:38;3.17;;;1.30;;
63370;SDS011;49504;48.336;14.472;2023-01-15T01:07:19;3.10;;;1.38;;
63370;SDS011;49504;48.336;14.472;2023-01-15T01:12:20;3.17;;;1.15;;
63370;SDS011;49504;48.336;14.472;2023-01-15T01:17:21;3.20;;;1.20;;
63370;SDS011;49504;48.336;14.472;2023-01-15T01:22:23;2.55;;;1.10;;
63370;SDS011;49504;48.336;14.472;2023-01-15T01:29:14;2.90;;;1.20;;
63370;SDS011;49504;48.336;14.472;2023-01-15T01:34:17;2.92;;;1.10;;
63370;SDS011;49504;48.336;14.472;2023-01-15T01:39:18;3.08;;;1.27;;
63370;SDS011;49504;48.336;14.472;2023-01-15T01:47:07;2.83;;;1.02;;
63370;SDS011;49504;48.336;14.472;2023-01-15T01:52:12;3.20;;;1.30;;
63370;SDS011;49504;48.336;14.472;2023-01-15T01:57:17;2.60;;;1.02;;
63370;SDS011;49504;48.336;14.472;2023-01-15T02:02:23;3.10;;;1.30;;
63370;SDS011;49504;48.336;14.472;2023-01-15T02:12:08;2.35;;;0.90;;
63370;SDS011;49504;48.336;14.472;2023-01-15T02:17:15;3.00;;;1.20;;
63370;SDS011;49504;48.336;14.472;2023-01-15T02:22:28;2.90;;;1.25;;
63370;SDS011;49504;48.336;14.472;2023-01-15T02:27:40;2.75;;;1.10;;
63370;SDS011;49504;48.336;14.472;2023-01-15T02:32:48;3.40;;;1.42;;
63370;SDS011;49504;48.336;14.472;2023-01-15T02:37:54;2.75;;;1.10;;
63370;SDS011;49504;48.336;14.472;2023-01-15T02:43:01;2.60;;;1.00;;
63370;SDS011;49504;48.336;14.472;2023-01-15T02:49:47;3.08;;;1.13;;
63370;SDS011;49504;48.336;14.472;2023-01-15T02:54:52;2.55;;;1.00;;
63370;SDS011;49504;48.336;14.472;2023-01-15T03:00:03;3.20;;;1.40;;
63370;SDS011;49504;48.336;14.472;2023-01-15T03:05:12;3.10;;;1.20;;
63370;SDS011;49504;48.336;14.472;2023-01-15T03:10:22;3.17;;;1.20;;
63370;SDS011;49504;48.336;14.472;2023-01-15T03:15:35;2.78;;;1.02;;
63370;SDS011;49504;48.336;14.472;2023-01-15T03:20:46;2.50;;;1.08;;
63370;SDS011;49504;48.336;14.472;2023-01-15T03:25:51;2.50;;;0.85;;
63370;SDS011;49504;48.336;14.472;2023-01-15T03:30:53;2.92;;;1.10;;
63370;SDS011;49504;48.336;14.472;2023-01-15T03:35:56;2.45;;;0.90;;
63370;SDS011;49504;48.336;14.472;2023-01-15T03:41:23;2.22;;;1.00;;
63370;SDS011;49504;48.336;14.472;2023-01-15T03:46:39;2.90;;;0.90;;
63370;SDS011;49504;48.336;14.472;2023-01-15T03:51:55;2.42;;;0.80;;
63370;SDS011;49504;48.336;14.472;2023-01-15T03:57:02;2.53;;;0.95;;
63370;SDS011;49504;48.336;14.472;2023-01-15T04:02:11;2.53;;;0.93;;
63370;SDS011;49504;48.336;14.472;2023-01-15T04:07:14;2.78;;;1.08;;
63370;SDS011;49504;48.336;14.472;2023-01-15T04:12:16;2.40;;;0.90;;
63370;SDS011;49504;48.336;14.472;2023-01-15T04:17:21;2.63;;;0.90;;
63370;SDS011;49504;48.336;14.472;2023-01-15T04:22:23;2.78;;;0.95;;
63370;SDS011;49504;48.336;14.472;2023-01-15T04:27:24;2.50;;;0.88;;
63370;SDS011;49504;48.336;14.472;2023-01-15T04:32:25;2.83;;;0.90;;
63370;SDS011;49504;48.336;14.472;2023-01-15T04:37:28;3.20;;;1.00;;
63370;SDS011;49504;48.336;14.472;2023-01-15T04:45:30;2.40;;;0.90;;
63370;SDS011;49504;48.336;14.472;2023-01-15T04:51:43;3.00;;;1.23;;
63370;SDS011;49504;48.336;14.472;2023-01-15T04:56:46;2.85;;;1.15;;
63370;SDS011;49504;48.336;14.472;2023-01-15T05:01:49;2.80;;;1.00;;
63370;SDS011;49504;48.336;14.472;2023-01-15T05:06:52;2.55;;;1.00;;
63370;SDS011;49504;48.336;14.472;2023-01-15T05:11:54;3.17;;;1.02;;
63370;SDS011;49504;48.336;14.472;2023-01-15T05:16:55;1.80;;;0.70;;
63370;SDS011;49504;48.336;14.472;2023-01-15T05:21:57;2.72;;;0.85;;
63370;SDS011;49504;48.336;14.472;2023-01-15T05:26:59;2.67;;;0.90;;
63370;SDS011;49504;48.336;14.472;2023-01-15T05:32:00;2.80;;;0.90;;
63370;SDS011;49504;48.336;14.472;2023-01-15T05:37:02;2.42;;;0.90;;
63370;SDS011;49504;48.336;14.472;2023-01-15T05:42:03;2.40;;;0.90;;
63370;SDS011;49504;48.336;14.472;2023-01-15T05:47:04;2.42;;;0.90;;
63370;SDS011;49504;48.336;14.472;2023-01-15T05:52:07;2.92;;;1.10;;
63370;SDS011;49504;48.336;14.472;2023-01-15T05:57:09;2.90;;;1.10;;
63370;SDS011;49504;48.336;14.472;2023-01-15T06:06:55;2.03;;;0.93;;
63370;SDS011;49504;48.336;14.472;2023-01-15T06:13:11;3.05;;;1.10;;
63370;SDS011;49504;48.336;14.472;2023-01-15T06:18:13;2.60;;;1.02;;
63370;SDS011;49504;48.336;14.472;2023-01-15T06:23:16;2.53;;;0.95;;
63370;SDS011;49504;48.336;14.472;2023-01-15T06:28:19;2.38;;;1.02;;
63370;SDS011;49504;48.336;14.472;2023-01-15T06:33:22;3.10;;;1.15;;
63370;SDS011;49504;48.336;14.472;2023-01-15T06:38:25;2.40;;;0.90;;
63370;SDS011;49504;48.336;14.472;2023-01-15T06:43:31;2.38;;;0.85;;
63370;SDS011;49504;48.336;14.472;2023-01-15T06:48:36;2.73;;;1.10;;
63370;SDS011;49504;48.336;14.472;2023-01-15T06:54:09;3.38;;;1.48;;
63370;SDS011;49504;48.336;14.472;2023-01-15T06:59:10;2.90;;;1.10;;
63370;SDS011;49504;48.336;14.472;2023-01-15T07:04:12;2.65;;;1.00;;
63370;SDS011;49504;48.336;14.472;2023-01-15T07:09:15;2.75;;;1.00;;
63370;SDS011;49504;48.336;14.472;2023-01-15T07:15:34;2.80;;;1.10;;
63370;SDS011;49504;48.336;14.472;2023-01-15T07:20:37;3.00;;;1.10;;
63370;SDS011;49504;48.336;14.472;2023-01-15T07:25:38;3.97;;;1.50;;
63370;SDS011;49504;48.336;14.472;2023-01-15T07:30:41;2.92;;;1.30;;
63370;SDS011;49504;48.336;14.472;2023-01-15T07:35:42;4.28;;;1.15;;
63370;SDS011;49504;48.336;14.472;2023-01-15T07:40:43;4.05;;;1.20;;
63370;SDS011;49504;48.336;14.472;2023-01-15T07:45:46;4.22;;;0.90;;
63370;SDS011;49504;48.336;14.472;2023-01-15T07:50:48;2.75;;;0.93;;
63370;SDS011;49504;48.336;14.472;2023-01-15T07:55:49;3.10;;;0.90;;
63370;SDS011;49504;48.336;14.472;2023-01-15T08:00:52;2.95;;;1.05;;
63370;SDS011;49504;48.336;14.472;2023-01-15T08:05:54;2.70;;;0.90;;
63370;SDS011;49504;48.336;14.472;2023-01-15T08:10:59;3.58;;;1.27;;
63370;SDS011;49504;48.336;14.472;2023-01-15T08:16:02;2.88;;;0.93;;
63370;SDS011;49504;48.336;14.472;2023-01-15T08:21:04;3.03;;;1.00;;
63370;SDS011;49504;48.336;14.472;2023-01-15T08:26:05;3.42;;;1.27;;
63370;SDS011;49504;48.336;14.472;2023-01-15T08:31:08;2.95;;;1.00;;
63370;SDS011;49504;48.336;14.472;2023-01-15T08:36:09;2.67;;;1.23;;
63370;SDS011;49504;48.336;14.472;2023-01-15T08:41:10;3.05;;;0.90;;
63370;SDS011;49504;48.336;14.472;2023-01-15T08:46:12;2.70;;;0.82;;
63370;SDS011;49504;48.336;14.472;2023-01-15T08:51:13;2.42;;;1.02;;
63370;SDS011;49504;48.336;14.472;2023-01-15T08:56:15;4.07;;;1.30;;
63370;SDS011;49504;48.336;14.472;2023-01-15T09:01:19;3.05;;;1.20;;
63370;SDS011;49504;48.336;14.472;2023-01-15T09:06:20;12.45;;;3.70;;
63370;SDS011;49504;48.336;14.472;2023-01-15T09:11:22;5.32;;;2.00;;
63370;SDS011;49504;48.336;14.472;2023-01-15T09:16:24;15.50;;;5.55;;
63370;SDS011;49504;48.336;14.472;2023-01-15T09:21:25;15.00;;;5.75;;
63370;SDS011;49504;48.336;14.472;2023-01-15T09:30:21;18.55;;;6.05;;
63370;SDS011;49504;48.336;14.472;2023-01-15T09:35:23;12.55;;;5.40;;
63370;SDS011;49504;48.336;14.472;2023-01-15T09:40:28;15.88;;;5.43;;
63370;SDS011;49504;48.336;14.472;2023-01-15T09:45:48;13.55;;;5.50;;
63370;SDS011;49504;48.336;14.472;2023-01-15T09:50:58;13.25;;;5.32;;
63370;SDS011;49504;48.336;14.472;2023-01-15T09:56:13;11.10;;;4.97;;
63370;SDS011;49504;48.336;14.472;2023-01-15T10:01:23;16.30;;;5.57;;
63370;SDS011;49504;48.336;14.472;2023-01-15T10:11:10;11.95;;;4.57;;
63370;SDS011;49504;48.336;14.472;2023-01-15T10:16:30;10.05;;;4.47;;
63370;SDS011;49504;48.336;14.472;2023-01-15T10:21:33;12.02;;;4.95;;
63370;SDS011;49504;48.336;14.472;2023-01-15T10:26:45;10.88;;;4.30;;
63370;SDS011;49504;48.336;14.472;2023-01-15T10:31:54;8.70;;;4.05;;
63370;SDS011;49504;48.336;14.472;2023-01-15T10:37:05;11.23;;;4.03;;
63370;SDS011;49504;48.336;14.472;2023-01-15T10:43:13;10.57;;;5.00;;
63370;SDS011;49504;48.336;14.472;2023-01-15T10:48:23;9.90;;;4.47;;
63370;SDS011;49504;48.336;14.472;2023-01-15T10:53:30;9.07;;;3.65;;
63370;SDS011;49504;48.336;14.472;2023-01-15T10:58:42;8.32;;;3.63;;
63370;SDS011;49504;48.336;14.472;2023-01-15T11:03:49;9.50;;;3.65;;
63370;SDS011;49504;48.336;14.472;2023-01-15T11:08:52;11.50;;;4.65;;
63370;SDS011;49504;48.336;14.472;2023-01-15T11:20:28;6.95;;;2.78;;
63370;SDS011;49504;48.336;14.472;2023-01-15T11:25:32;6.97;;;3.15;;
63370;SDS011;49504;48.336;14.472;2023-01-15T11:30:34;7.78;;;3.47;;
63370;SDS011;49504;48.336;14.472;2023-01-15T11:35:47;7.68;;;3.00;;
63370;SDS011;49504;48.336;14.472;2023-01-15T11:40:50;8.93;;;2.83;;
63370;SDS011;49504;48.336;14.472;2023-01-15T11:45:52;7.07;;;2.80;;
63370;SDS011;49504;48.336;14.472;2023-01-15T11:50:58;5.93;;;2.70;;
63370;SDS011;49504;48.336;14.472;2023-01-15T11:56:05;7.47;;;2.72;;
63370;SDS011;49504;48.336;14.472;2023-01-15T12:01:11;7.35;;;3.10;;
63370;SDS011;49504;48.336;14.472;2023-01-15T12:09:53;6.35;;;3.08;;
63370;SDS011;49504;48.336;14.472;2023-01-15T12:15:17;5.18;;;2.28;;
63370;SDS011;49504;48.336;14.472;2023-01-15T12:20:40;8.13;;;2.33;;
63370;SDS011;49504;48.336;14.472;2023-01-15T12:25:58;6.20;;;2.50;;
63370;SDS011;49504;48.336;14.472;2023-01-15T12:32:34;5.80;;;2.00;;
63370;SDS011;49504;48.336;14.472;2023-01-15T12:37:40;6.43;;;2.40;;
63370;SDS011;49504;48.336;14.472;2023-01-15T12:47:30;5.57;;;2.10;;
63370;SDS011;49504;48.336;14.472;2023-01-15T12:52:38;6.68;;;2.55;;
63370;SDS011;49504;48.336;14.472;2023-01-15T12:57:43;6.15;;;2.15;;
63370;SDS011;49504;48.336;14.472;2023-01-15T13:02:56;5.22;;;2.10;;
63370;SDS011;49504;48.336;14.472;2023-01-15T13:08:10;4.95;;;2.17;;
63370;SDS011;49504;48.336;14.472;2023-01-15T13:13:20;5.25;;;2.63;;
63370;SDS011;49504;48.336;14.472;2023-01-15T13:23:22;4.63;;;2.10;;
63370;SDS011;49504;48.336;14.472;2023-01-15T13:28:48;6.53;;;2.33;;
63370;SDS011;49504;48.336;14.472;2023-01-15T13:34:03;5.53;;;2.03;;
63370;SDS011;49504;48.336;14.472;2023-01-15T13:39:15;4.75;;;2.05;;
63370;SDS011;49504;48.336;14.472;2023-01-15T13:48:53;4.95;;;2.00;;
63370;SDS011;49504;48.336;14.472;2023-01-15T13:53:54;4.88;;;2.03;;
63370;SDS011;49504;48.336;14.472;2023-01-15T13:58:57;4.45;;;1.88;;
63370;SDS011;49504;48.336;14.472;2023-01-15T14:04:02;6.97;;;2.67;;
63370;SDS011;49504;48.336;14.472;2023-01-15T14:09:05;5.72;;;2.13;;
63370;SDS011;49504;48.336;14.472;2023-01-15T14:14:16;7.68;;;2.50;;
63370;SDS011;49504;48.336;14.472;2023-01-15T14:19:53;5.03;;;2.30;;
63370;SDS011;49504;48.336;14.472;2023-01-15T14:25:16;6.15;;;2.38;;
63370;SDS011;49504;48.336;14.472;2023-01-15T14:36:36;5.18;;;2.22;;
63370;SDS011;49504;48.336;14.472;2023-01-15T14:41:44;7.97;;;2.53;;
63370;SDS011;49504;48.336;14.472;2023-01-15T14:46:45;6.13;;;2.40;;
63370;SDS011;49504;48.336;14.472;2023-01-15T14:51:48;6.43;;;2.70;;
63370;SDS011;49504;48.336;14.472;2023-01-15T14:56:50;4.43;;;1.90;;
63370;SDS011;49504;48.336;14.472;2023-01-15T15:01:56;4.35;;;1.92;;
63370;SDS011;49504;48.336;14.472;2023-01-15T15:07:02;5.10;;;2.05;;
63370;SDS011;49504;48.336;14.472;2023-01-15T15:12:16;5.32;;;2.08;;
63370;SDS011;49504;48.336;14.472;2023-01-15T15:17:29;4.95;;;2.10;;
63370;SDS011;49504;48.336;14.472;2023-01-15T15:22:40;4.30;;;2.13;;
63370;SDS011;49504;48.336;14.472;2023-01-15T15:27:44;3.90;;;1.83;;
63370;SDS011;49504;48.336;14.472;2023-01-15T15:32:45;5.15;;;2.40;;
63370;SDS011;49504;48.336;14.472;2023-01-15T15:39:17;4.47;;;1.92;;
63370;SDS011;49504;48.336;14.472;2023-01-15T15:44:25;3.95;;;1.60;;
63370;SDS011;49504;48.336;14.472;2023-01-15T15:51:50;4.75;;;1.95;;
63370;SDS011;49504;48.336;14.472;2023-01-15T16:01:28;3.85;;;1.50;;
63370;SDS011;49504;48.336;14.472;2023-01-15T16:06:29;4.10;;;1.80;;
63370;SDS011;49504;48.336;14.472;2023-01-15T16:11:30;6.35;;;2.20;;
63370;SDS011;49504;48.336;14.472;2023-01-15T16:16:34;4.00;;;1.70;;
63370;SDS011;49504;48.336;14.472;2023-01-15T16:21:38;3.33;;;1.55;;
63370;SDS011;49504;48.336;14.472;2023-01-15T16:26:41;3.55;;;1.58;;
63370;SDS011;49504;48.336;14.472;2023-01-15T16:31:50;3.78;;;1.42;;
63370;SDS011;49504;48.336;14.472;2023-01-15T16:36:52;3.08;;;1.10;;
63370;SDS011;49504;48.336;14.472;2023-01-15T16:41:53;3.17;;;1.25;;
63370;SDS011;49504;48.336;14.472;2023-01-15T16:46:58;3.53;;;1.30;;
63370;SDS011;49504;48.336;14.472;2023-01-15T16:52:00;3.20;;;1.10;;
63370;SDS011;49504;48.336;14.472;2023-01-15T16:57:03;3.25;;;1.20;;
63370;SDS011;49504;48.336;14.472;2023-01-15T17:02:44;3.45;;;1.20;;
63370;SDS011;49504;48.336;14.472;2023-01-15T17:07:46;3.25;;;1.00;;
63370;SDS011;49504;48.336;14.472;2023-01-15T17:16:16;3.60;;;1.13;;
63370;SDS011;49504;48.336;14.472;2023-01-15T17:21:20;2.83;;;1.00;;
63370;SDS011;49504;48.336;14.472;2023-01-15T17:26:23;3.38;;;1.20;;
63370;SDS011;49504;48.336;14.472;2023-01-15T17:31:27;3.17;;;1.00;;
63370;SDS011;49504;48.336;14.472;2023-01-15T17:36:30;3.35;;;1.08;;
63370;SDS011;49504;48.336;14.472;2023-01-15T17:46:19;3.03;;;1.10;;
63370;SDS011;49504;48.336;14.472;2023-01-15T17:51:20;4.70;;;1.50;;
63370;SDS011;49504;48.336;14.472;2023-01-15T17:56:21;4.00;;;1.35;;
63370;SDS011;49504;48.336;14.472;2023-01-15T18:04:07;3.75;;;1.20;;
63370;SDS011;49504;48.336;14.472;2023-01-15T18:09:20;4.00;;;1.45;;
63370;SDS011;49504;48.336;14.472;2023-01-15T18:14:23;3.38;;;1.30;;
63370;SDS011;49504;48.336;14.472;2023-01-15T18:19:25;2.97;;;0.90;;
63370;SDS011;49504;48.336;14.472;2023-01-15T18:24:27;2.95;;;1.10;;
63370;SDS011;49504;48.336;14.472;2023-01-15T18:29:28;4.22;;;1.30;;
63370;SDS011;49504;48.336;14.472;2023-01-15T18:34:30;3.50;;;1.02;;
63370;SDS011;49504;48.336;14.472;2023-01-15T18:39:31;3.85;;;1.50;;
63370;SDS011;49504;48.336;14.472;2023-01-15T18:44:32;3.17;;;1.00;;
63370;SDS011;49504;48.336;14.472;2023-01-15T18:49:35;3.05;;;1.13;;
63370;SDS011;49504;48.336;14.472;2023-01-15T18:54:36;3.22;;;1.30;;
63370;SDS011;49504;48.336;14.472;2023-01-15T18:59:38;4.05;;;1.45;;
63370;SDS011;49504;48.336;14.472;2023-01-15T19:04:40;2.70;;;0.77;;
63370;SDS011;49504;48.336;14.472;2023-01-15T19:09:42;3.47;;;1.10;;
63370;SDS011;49504;48.336;14.472;2023-01-15T19:14:43;3.17;;;1.08;;
63370;SDS011;49504;48.336;14.472;2023-01-15T19:19:46;3.78;;;1.30;;
63370;SDS011;49504;48.336;14.472;2023-01-15T19:24:47;2.95;;;1.00;;
63370;SDS011;49504;48.336;14.472;2023-01-15T19:29:48;3.60;;;1.13;;
63370;SDS011;49504;48.336;14.472;2023-01-15T19:34:50;3.63;;;1.38;;
63370;SDS011;49504;48.336;14.472;2023-01-15T19:39:51;3.70;;;1.15;;
63370;SDS011;49504;48.336;14.472;2023-01-15T19:44:53;4.20;;;1.13;;
63370;SDS011;49504;48.336;14.472;2023-01-15T19:50:48;3.17;;;1.17;;
63370;SDS011;49504;48.336;14.472;2023-01-15T19:55:49;2.90;;;1.15;;
63370;SDS011;49504;48.336;14.472;2023-01-15T20:00:50;2.72;;;1.15;;
63370;SDS011;49504;48.336;14.472;2023-01-15T20:05:53;3.22;;;1.05;;
63370;SDS011;49504;48.336;14.472;2023-01-15T20:10:54;2.83;;;0.90;;
63370;SDS011;49504;48.336;14.472;2023-01-15T20:19:52;3.30;;;1.05;;
63370;SDS011;49504;48.336;14.472;2023-01-15T20:24:53;2.47;;;0.90;;
63370;SDS011;49504;48.336;14.472;2023-01-15T20:29:54;3.08;;;0.90;;
63370;SDS011;49504;48.336;14.472;2023-01-15T20:37:49;2.20;;;0.73;;
63370;SDS011;49504;48.336;14.472;2023-01-15T20:42:51;3.85;;;1.42;;
63370;SDS011;49504;48.336;14.472;2023-01-15T20:56:00;2.13;;;0.70;;
63370;SDS011;49504;48.336;14.472;2023-01-15T21:04:26;2.88;;;0.80;;
63370;SDS011;49504;48.336;14.472;2023-01-15T21:09:28;3.38;;;1.00;;
63370;SDS011;49504;48.336;14.472;2023-01-15T21:14:29;3.80;;;1.00;;
63370;SDS011;49504;48.336;14.472;2023-01-15T21:19:31;3.10;;;1.05;;
63370;SDS011;49504;48.336;14.472;2023-01-15T21:24:32;2.70;;;0.70;;
63370;SDS011;49504;48.336;14.472;2023-01-15T21:29:34;2.20;;;0.70;;
63370;SDS011;49504;48.336;14.472;2023-01-15T21:34:36;2.15;;;0.63;;
63370;SDS011;49504;48.336;14.472;2023-01-15T21:39:37;2.45;;;0.80;;
63370;SDS011;49504;48.336;14.472;2023-01-15T21:44:38;3.03;;;0.55;;
63370;SDS011;49504;48.336;14.472;2023-01-15T21:49:41;2.17;;;0.60;;
63370;SDS011;49504;48.336;14.472;2023-01-15T21:54:43;2.75;;;0.90;;
63370;SDS011;49504;48.336;14.472;2023-01-15T22:03:19;2.03;;;0.68;;
63370;SDS011;49504;48.336;14.472;2023-01-15T22:08:20;2.75;;;0.73;;
63370;SDS011;49504;48.336;14.472;2023-01-15T22:13:21;2.80;;;0.90;;
63370;SDS011;49504;48.336;14.472;2023-01-15T22:18:24;2.75;;;0.63;;
63370;SDS011;49504;48.336;14.472;2023-01-15T22:23:25;2.28;;;0.70;;
63370;SDS011;49504;48.336;14.472;2023-01-15T22:28:27;2.40;;;0.70;;
63370;SDS011;49504;48.336;14.472;2023-01-15T22:33:30;2.13;;;0.60;;
63370;SDS011;49504;48.336;14.472;2023-01-15T22:43:32;1.83;;;0.52;;
63370;SDS011;49504;48.336;14.472;2023-01-15T22:48:36;2.35;;;0.70;;
63370;SDS011;49504;48.336;14.472;2023-01-15T22:53:37;1.88;;;0.60;;
63370;SDS011;49504;48.336;14.472;2023-01-15T22:58:38;2.35;;;0.70;;
63370;SDS011;49504;48.336;14.472;2023-01-15T23:04:16;1.80;;;0.50;;
63370;SDS011;49504;48.336;14.472;2023-01-15T23:09:19;1.70;;;0.70;;
63370;SDS011;49504;48.336;14.472;2023-01-15T23:14:22;1.90;;;0.65;;
63370;SDS011;49504;48.336;14.472;2023-01-15T23:19:24;2.55;;;0.63;;
63370;SDS011;49504;48.336;14.472;2023-01-15T23:24:25;3.25;;;0.60;;
63370;SDS011;49504;48.336;14.472;2023-01-15T23:29:26;1.05;;;0.30;;
63370;SDS011;49504;48.336;14.472;2023-01-15T23:34:41;1.77;;;0.47;;
63370;SDS011;49504;48.336;14.472;2023-01-15T23:39:42;1.77;;;0.47;;
63370;SDS011;49504;48.336;14.472;2023-01-15T23:45:41;2.17;;;0.60;;
63370;SDS011;49504;48.336;14.472;2023-01-15T23:50:42;1.70;;;0.45;;
63370;SDS011;49504;48.336;14.472;2023-01-15T23:55:43;1.30;;;0.40;;
